createdAt,value
2023-05-15T00:00:02.631Z,12.12
2023-05-15T00:02:40.383Z,12.14
2023-05-15T00:05:09.334Z,12.12
2023-05-15T00:07:37.432Z,12.16
2023-05-15T00:10:07.399Z,12.10
2023-05-15T00:12:35.855Z,12.13
2023-05-15T00:15:03.530Z,12.18
2023-05-15T00:17:31.329Z,12.18
2023-05-15T00:19:59.787Z,12.18
2023-05-15T00:22:27.439Z,12.20
2023-05-15T00:24:55.039Z,12.18
2023-05-15T00:27:24.252Z,12.09
2023-05-15T00:29:51.889Z,12.10
2023-05-15T00:32:19.514Z,12.13
2023-05-15T00:34:47.296Z,12.11
2023-05-15T00:37:15.011Z,12.07
2023-05-15T00:39:42.781Z,12.03
2023-05-15T00:42:11.214Z,12.00
2023-05-15T00:44:42.231Z,11.96
2023-05-15T00:47:11.853Z,11.80
2023-05-15T00:49:40.092Z,11.83
2023-05-15T00:52:08.627Z,11.78
2023-05-15T00:54:36.545Z,11.87
2023-05-15T00:57:06.666Z,11.83
2023-05-15T00:59:34.762Z,11.85
2023-05-15T01:02:04.079Z,11.89
2023-05-15T01:04:32.472Z,11.90
2023-05-15T01:07:00.279Z,11.89
2023-05-15T01:09:31.205Z,11.87
2023-05-15T01:12:02.115Z,11.78
2023-05-15T01:14:29.724Z,11.84
2023-05-15T01:16:57.391Z,11.78
2023-05-15T01:19:26.578Z,11.72
2023-05-15T01:22:34.973Z,11.66
2023-05-15T01:25:36.425Z,11.70
2023-05-15T01:28:09.976Z,11.74
2023-05-15T01:30:40.926Z,11.68
2023-05-15T01:33:22.080Z,11.60
2023-05-15T01:35:56.921Z,11.54
2023-05-15T01:38:31.697Z,11.45
2023-05-15T01:41:04.298Z,11.47
2023-05-15T01:43:36.164Z,11.57
2023-05-15T01:46:06.239Z,11.61
2023-05-15T01:48:36.367Z,11.63
2023-05-15T01:51:07.513Z,11.61
2023-05-15T01:53:37.052Z,11.52
2023-05-15T01:56:08.191Z,11.49
2023-05-15T01:58:38.681Z,11.57
2023-05-15T02:01:09.773Z,11.45
2023-05-15T02:03:38.442Z,11.38
2023-05-15T02:06:08.413Z,11.24
2023-05-15T02:08:37.471Z,11.28
2023-05-15T02:11:06.116Z,10.98
2023-05-15T02:13:36.379Z,10.92
2023-05-15T02:16:05.733Z,10.99
2023-05-15T02:18:33.717Z,11.05
2023-05-15T02:21:02.847Z,10.92
2023-05-15T02:23:30.522Z,10.92
2023-05-15T02:26:13.737Z,10.92
2023-05-15T02:28:49.489Z,10.90
2023-05-15T02:31:27.851Z,10.95
2023-05-15T02:34:04.438Z,10.80
2023-05-15T02:36:36.095Z,11.03
2023-05-15T02:39:03.811Z,11.04
2023-05-15T02:41:34.285Z,10.92
2023-05-15T02:44:03.651Z,11.06
2023-05-15T02:46:33.220Z,11.06
2023-05-15T02:49:01.763Z,11.11
2023-05-15T02:51:30.128Z,11.09
2023-05-15T02:54:01.150Z,10.99
2023-05-15T02:56:29.025Z,11.05
2023-05-15T02:58:57.002Z,11.09
2023-05-15T03:01:24.949Z,11.15
2023-05-15T03:03:54.052Z,11.13
2023-05-15T03:06:21.962Z,11.20
2023-05-15T03:08:49.727Z,11.14
2023-05-15T03:11:19.274Z,11.20
2023-05-15T03:13:46.926Z,11.09
2023-05-15T03:16:14.613Z,10.99
2023-05-15T03:18:42.558Z,10.86
2023-05-15T03:21:11.587Z,10.96
2023-05-15T03:23:39.334Z,10.92
2023-05-15T03:26:06.987Z,11.07
2023-05-15T03:28:34.692Z,10.93
2023-05-15T03:31:04.781Z,10.75
2023-05-15T03:33:33.078Z,10.90
2023-05-15T03:36:00.733Z,10.86
2023-05-15T03:38:29.670Z,10.99
2023-05-15T03:40:57.291Z,11.01
2023-05-15T03:43:25.080Z,11.05
2023-05-15T03:45:52.703Z,11.21
2023-05-15T03:48:20.499Z,11.02
2023-05-15T03:50:48.195Z,10.91
2023-05-15T03:53:15.872Z,11.02
2023-05-15T03:55:45.362Z,10.96
2023-05-15T03:58:13.082Z,10.99
2023-05-15T04:00:40.830Z,10.89
2023-05-15T04:03:08.853Z,11.06
2023-05-15T04:05:36.631Z,11.01
2023-05-15T04:08:04.379Z,11.04
2023-05-15T04:10:33.807Z,11.02
2023-05-15T04:13:02.806Z,11.05
2023-05-15T04:15:30.767Z,11.11
2023-05-15T04:17:58.463Z,11.27
2023-05-15T04:20:26.551Z,11.26
2023-05-15T04:22:54.864Z,11.27
2023-05-15T04:25:22.861Z,11.22
2023-05-15T04:27:50.826Z,11.18
2023-05-15T04:30:20.160Z,11.38
2023-05-15T04:32:47.809Z,11.36
2023-05-15T04:35:15.819Z,11.35
2023-05-15T04:37:45.526Z,11.25
2023-05-15T04:40:15.120Z,11.37
2023-05-15T04:42:42.976Z,11.30
2023-05-15T04:45:10.944Z,11.33
2023-05-15T04:47:40.053Z,11.36
2023-05-15T04:50:09.160Z,11.44
2023-05-15T04:52:36.804Z,11.48
2023-05-15T04:55:04.939Z,11.32
2023-05-15T04:57:32.697Z,11.37
2023-05-15T05:00:00.312Z,11.24
2023-05-15T05:02:51.827Z,11.38
2023-05-15T05:05:19.591Z,11.07
2023-05-15T05:07:47.417Z,11.36
2023-05-15T05:10:15.092Z,11.42
2023-05-15T05:12:42.682Z,11.52
2023-05-15T05:15:11.340Z,11.66
2023-05-15T05:17:39.090Z,11.84
2023-05-15T05:20:12.662Z,11.89
2023-05-15T05:22:42.259Z,12.02
2023-05-15T05:25:10.259Z,12.09
2023-05-15T05:27:37.854Z,12.11
2023-05-15T05:30:06.552Z,12.35
2023-05-15T05:32:34.195Z,12.38
2023-05-15T05:35:02.173Z,12.57
2023-05-15T05:37:31.166Z,12.64
2023-05-15T05:39:58.906Z,12.37
2023-05-15T05:42:26.906Z,12.11
2023-05-15T05:44:54.666Z,12.23
2023-05-15T05:47:22.265Z,12.35
2023-05-15T05:49:49.888Z,12.48
2023-05-15T05:52:17.754Z,12.30
2023-05-15T05:54:48.119Z,12.38
2023-05-15T05:57:16.047Z,12.54
2023-05-15T05:59:43.808Z,12.77
2023-05-15T06:02:11.793Z,12.50
2023-05-15T06:04:39.436Z,12.88
2023-05-15T06:07:07.541Z,12.60
2023-05-15T06:09:35.253Z,12.85
2023-05-15T06:12:05.678Z,12.90
2023-05-15T06:14:33.313Z,12.87
2023-05-15T06:17:01.898Z,12.88
2023-05-15T06:19:29.826Z,13.06
2023-05-15T06:21:57.443Z,12.95
2023-05-15T06:24:25.051Z,13.03
2023-05-15T06:26:52.720Z,13.17
2023-05-15T06:29:22.226Z,13.00
2023-05-15T06:31:50.029Z,12.94
2023-05-15T06:34:17.652Z,13.01
2023-05-15T06:36:45.527Z,13.17
2023-05-15T06:39:13.136Z,13.25
2023-05-15T06:41:40.914Z,13.07
2023-05-15T06:44:13.128Z,13.25
2023-05-15T06:46:42.139Z,13.38
2023-05-15T06:49:09.960Z,13.75
2023-05-15T06:51:37.747Z,13.72
2023-05-15T06:54:05.492Z,13.70
2023-05-15T06:56:33.436Z,13.85
2023-05-15T06:59:01.052Z,13.85
2023-05-15T07:01:28.718Z,13.81
2023-05-15T07:03:57.842Z,14.16
2023-05-15T07:06:25.938Z,13.73
2023-05-15T07:08:53.855Z,13.78
2023-05-15T07:11:22.020Z,14.29
2023-05-15T07:13:50.670Z,14.35
2023-05-15T07:16:18.394Z,14.16
2023-05-15T07:18:46.182Z,14.22
2023-05-15T07:21:15.226Z,14.61
2023-05-15T07:23:42.999Z,14.43
2023-05-15T07:26:16.950Z,14.44
2023-05-15T07:28:47.804Z,14.49
2023-05-15T07:31:15.649Z,14.39
2023-05-15T07:33:43.263Z,14.36
2023-05-15T07:36:11.025Z,14.34
2023-05-15T07:38:40.030Z,14.54
2023-05-15T07:41:07.660Z,14.18
2023-05-15T07:43:35.358Z,14.16
2023-05-15T07:46:03.038Z,14.01
2023-05-15T07:48:30.674Z,14.39
2023-05-15T07:50:58.307Z,14.59
2023-05-15T07:53:26.404Z,14.66
2023-05-15T07:55:55.860Z,14.44
2023-05-15T07:58:23.892Z,15.42
2023-05-15T08:00:51.639Z,15.90
2023-05-15T08:03:19.387Z,15.91
2023-05-15T08:05:47.313Z,15.76
2023-05-15T08:08:15.421Z,15.49
2023-05-15T08:10:43.438Z,15.75
2023-05-15T08:13:12.400Z,15.64
2023-05-15T08:15:40.063Z,16.27
2023-05-15T08:18:10.487Z,16.63
2023-05-15T08:20:38.685Z,16.58
2023-05-15T08:23:06.619Z,16.37
2023-05-15T08:25:35.190Z,16.77
2023-05-15T08:28:03.080Z,17.04
2023-05-15T08:30:31.978Z,17.15
2023-05-15T08:32:59.611Z,16.74
2023-05-15T08:35:27.643Z,16.50
2023-05-15T08:37:55.662Z,15.87
2023-05-15T08:40:34.479Z,14.85
2023-05-15T08:43:13.823Z,15.23
2023-05-15T08:45:44.014Z,15.39
2023-05-15T08:48:14.579Z,16.19
2023-05-15T08:50:44.009Z,16.26
2023-05-15T08:53:13.373Z,16.38
2023-05-15T08:55:41.714Z,16.12
2023-05-15T08:58:10.019Z,16.39
2023-05-15T09:00:37.939Z,16.45
2023-05-15T09:03:06.954Z,16.92
2023-05-15T09:05:37.400Z,17.53
2023-05-15T09:08:09.187Z,17.34
2023-05-15T09:10:37.230Z,18.19
2023-05-15T09:13:07.420Z,19.06
2023-05-15T09:15:35.638Z,18.25
2023-05-15T09:18:03.337Z,18.53
2023-05-15T09:20:34.186Z,18.81
2023-05-15T09:23:03.709Z,18.18
2023-05-15T09:25:39.301Z,18.50
2023-05-15T09:28:07.555Z,18.00
2023-05-15T09:30:35.182Z,17.80
2023-05-15T09:33:03.875Z,18.09
2023-05-15T09:35:37.064Z,18.59
2023-05-15T09:38:09.023Z,19.11
2023-05-15T09:40:36.740Z,19.77
2023-05-15T09:43:04.736Z,20.53
2023-05-15T09:45:32.442Z,20.84
2023-05-15T09:48:02.492Z,19.36
2023-05-15T09:50:35.038Z,18.92
2023-05-15T09:53:05.092Z,17.88
2023-05-15T09:55:33.153Z,17.95
2023-05-15T09:58:09.055Z,19.38
2023-05-15T10:00:47.996Z,19.83
2023-05-15T10:03:19.067Z,19.76
2023-05-15T10:05:47.057Z,19.89
2023-05-15T10:08:16.229Z,19.27
2023-05-15T10:10:44.464Z,18.95
2023-05-15T10:13:12.649Z,18.11
2023-05-15T10:15:40.985Z,18.14
2023-05-15T10:18:09.255Z,17.56
2023-05-15T10:20:38.338Z,17.27
2023-05-15T10:23:06.843Z,17.59
2023-05-15T10:25:42.367Z,17.82
2023-05-15T10:28:11.305Z,17.93
2023-05-15T10:30:39.506Z,17.30
2023-05-15T10:33:08.964Z,17.83
2023-05-15T10:35:37.284Z,17.76
2023-05-15T10:38:06.479Z,17.18
2023-05-15T10:40:37.781Z,17.31
2023-05-15T10:43:06.588Z,17.27
2023-05-15T10:45:36.534Z,16.70
2023-05-15T10:48:07.592Z,16.95
2023-05-15T10:50:38.009Z,16.42
2023-05-15T10:53:05.724Z,16.76
2023-05-15T10:55:33.521Z,16.97
2023-05-15T10:58:02.567Z,17.09
2023-05-15T11:00:32.118Z,17.72
2023-05-15T11:03:00.992Z,18.37
2023-05-15T11:05:30.698Z,18.54
2023-05-15T11:08:29.868Z,18.27
2023-05-15T11:10:58.902Z,18.51
2023-05-15T11:13:27.919Z,18.39
2023-05-15T11:15:57.190Z,18.92
2023-05-15T11:18:24.808Z,19.68
2023-05-15T11:21:08.942Z,20.17
2023-05-15T11:23:41.803Z,19.83
2023-05-15T11:26:09.784Z,19.70
2023-05-15T11:28:47.316Z,19.87
2023-05-15T11:31:15.916Z,19.36
2023-05-15T11:33:43.579Z,19.33
2023-05-15T11:36:14.038Z,20.71
2023-05-15T11:38:41.654Z,21.18
2023-05-15T11:41:20.009Z,21.42
2023-05-15T11:43:49.054Z,21.23
2023-05-15T11:46:17.577Z,21.24
2023-05-15T11:48:47.580Z,21.12
2023-05-15T11:51:21.507Z,20.00
2023-05-15T11:53:50.911Z,18.80
2023-05-15T11:56:19.544Z,18.37
2023-05-15T11:58:50.767Z,18.05
2023-05-15T12:01:18.566Z,17.86
2023-05-15T12:03:48.657Z,17.73
2023-05-15T12:06:17.069Z,18.04
2023-05-15T12:08:45.156Z,18.37
2023-05-15T12:11:13.321Z,18.77
2023-05-15T12:13:40.923Z,19.24
2023-05-15T12:16:09.915Z,19.53
2023-05-15T12:18:38.088Z,19.67
2023-05-15T12:21:06.200Z,20.15
2023-05-15T12:23:33.959Z,19.88
2023-05-15T12:26:03.642Z,20.21
2023-05-15T12:28:34.444Z,20.32
2023-05-15T12:31:02.179Z,20.03
2023-05-15T12:33:31.450Z,18.63
2023-05-15T12:36:01.638Z,19.10
2023-05-15T12:38:30.673Z,19.26
2023-05-15T12:40:58.511Z,18.77
2023-05-15T12:43:27.489Z,18.57
2023-05-15T12:45:55.985Z,19.02
2023-05-15T12:48:24.062Z,19.31
2023-05-15T12:50:53.163Z,20.03
2023-05-15T12:53:23.078Z,20.66
2023-05-15T12:55:51.980Z,20.92
2023-05-15T12:58:19.933Z,20.27
2023-05-15T13:00:48.637Z,19.55
2023-05-15T13:03:16.749Z,19.45
2023-05-15T13:05:45.987Z,19.44
2023-05-15T13:08:18.490Z,18.84
2023-05-15T13:10:47.928Z,18.39
2023-05-15T13:13:17.484Z,17.98
2023-05-15T13:15:46.245Z,18.09
2023-05-15T13:18:15.293Z,17.48
2023-05-15T13:20:44.739Z,17.89
2023-05-15T13:23:14.960Z,18.29
2023-05-15T13:25:44.901Z,18.62
2023-05-15T13:28:13.249Z,18.11
2023-05-15T13:30:42.405Z,17.96
2023-05-15T13:33:10.500Z,17.91
2023-05-15T13:35:38.996Z,17.58
2023-05-15T13:38:08.729Z,17.54
2023-05-15T13:40:38.088Z,17.12
2023-05-15T13:43:07.367Z,16.67
2023-05-15T13:45:35.396Z,15.93
2023-05-15T13:48:04.160Z,16.07
2023-05-15T13:50:31.811Z,15.17
2023-05-15T13:52:59.414Z,15.56
2023-05-15T13:55:27.462Z,15.63
2023-05-15T13:57:55.362Z,15.66
2023-05-15T14:00:24.449Z,15.68
2023-05-15T14:02:52.175Z,15.60
2023-05-15T14:05:19.923Z,15.17
2023-05-15T14:07:47.758Z,14.94
2023-05-15T14:10:15.351Z,14.55
2023-05-15T14:12:43.473Z,14.16
2023-05-15T14:15:12.245Z,14.23
2023-05-15T14:17:41.366Z,14.07
2023-05-15T14:20:11.634Z,14.68
2023-05-15T14:22:40.061Z,14.98
2023-05-15T14:25:09.693Z,15.19
2023-05-15T14:27:37.314Z,15.22
2023-05-15T14:30:06.061Z,15.27
2023-05-15T14:32:33.688Z,15.28
2023-05-15T14:35:02.785Z,15.13
2023-05-15T14:37:30.357Z,14.96
2023-05-15T14:39:58.237Z,15.13
2023-05-15T14:42:27.075Z,15.03
2023-05-15T14:44:54.829Z,14.82
2023-05-15T14:47:22.412Z,14.68
2023-05-15T14:49:50.219Z,14.59
2023-05-15T14:52:19.168Z,14.80
2023-05-15T14:54:56.990Z,14.94
2023-05-15T14:57:34.498Z,14.91
2023-05-15T15:00:02.127Z,14.93
2023-05-15T15:02:29.817Z,14.84
2023-05-15T15:04:57.878Z,14.83
2023-05-15T15:07:29.287Z,14.73
2023-05-15T15:09:57.199Z,14.87
2023-05-15T15:12:25.382Z,14.88
2023-05-15T15:14:52.983Z,14.86
2023-05-15T15:17:20.936Z,14.84
2023-05-15T15:19:48.528Z,14.72
2023-05-15T15:22:16.269Z,14.73
2023-05-15T15:24:45.247Z,14.60
2023-05-15T15:27:13.153Z,14.76
2023-05-15T15:29:40.731Z,14.68
2023-05-15T15:32:08.675Z,14.78
2023-05-15T15:34:36.332Z,15.05
2023-05-15T15:37:04.267Z,15.15
2023-05-15T15:39:33.829Z,15.29
2023-05-15T15:42:05.094Z,15.38
2023-05-15T15:44:34.415Z,15.22
2023-05-15T15:47:02.270Z,15.19
2023-05-15T15:49:29.859Z,15.18
2023-05-15T15:51:57.710Z,15.72
2023-05-15T15:54:25.369Z,16.43
2023-05-15T15:56:53.419Z,17.08
2023-05-15T15:59:22.651Z,17.50
2023-05-15T16:01:50.298Z,17.30
2023-05-15T16:04:18.170Z,17.57
2023-05-15T16:06:45.809Z,18.10
2023-05-15T16:09:14.488Z,18.26
2023-05-15T16:11:42.071Z,18.37
2023-05-15T16:14:09.830Z,19.30
2023-05-15T16:16:38.806Z,19.58
2023-05-15T16:19:06.641Z,19.36
2023-05-15T16:21:36.353Z,19.22
2023-05-15T16:24:04.476Z,19.14
2023-05-15T16:26:32.749Z,19.22
2023-05-15T16:29:00.414Z,19.50
2023-05-15T16:31:28.257Z,19.80
2023-05-15T16:34:00.305Z,19.62
2023-05-15T16:36:29.163Z,19.63
2023-05-15T16:38:57.171Z,19.47
2023-05-15T16:41:26.275Z,19.67
2023-05-15T16:43:53.936Z,19.78
2023-05-15T16:46:21.925Z,19.81
2023-05-15T16:48:49.562Z,19.56
2023-05-15T16:51:18.787Z,19.73
2023-05-15T16:53:47.080Z,19.96
2023-05-15T16:56:14.845Z,20.16
2023-05-15T16:58:43.208Z,19.98
2023-05-15T17:01:10.909Z,19.18
2023-05-15T17:03:38.565Z,19.16
2023-05-15T17:06:06.828Z,18.88
2023-05-15T17:08:35.759Z,18.90
2023-05-15T17:11:03.413Z,19.15
2023-05-15T17:13:31.028Z,19.42
2023-05-15T17:15:58.679Z,19.58
2023-05-15T17:18:26.238Z,19.83
2023-05-15T17:20:53.977Z,19.92
2023-05-15T17:23:23.028Z,19.84
2023-05-15T17:25:52.464Z,19.38
2023-05-15T17:28:20.089Z,19.02
2023-05-15T17:30:47.663Z,18.80
2023-05-15T17:33:15.329Z,18.57
2023-05-15T17:35:42.963Z,18.10
2023-05-15T17:38:10.716Z,18.25
2023-05-15T17:40:38.282Z,18.17
2023-05-15T17:43:09.875Z,18.10
2023-05-15T17:45:37.556Z,18.03
2023-05-15T17:48:05.978Z,17.93
2023-05-15T17:50:35.000Z,17.94
2023-05-15T17:53:03.826Z,17.82
2023-05-15T17:55:31.419Z,17.69
2023-05-15T17:57:59.253Z,17.54
2023-05-15T18:00:28.571Z,17.47
2023-05-15T18:02:56.595Z,17.54
2023-05-15T18:05:24.843Z,17.55
2023-05-15T18:07:52.809Z,17.55
2023-05-15T18:10:20.597Z,17.55
2023-05-15T18:12:48.352Z,17.49
2023-05-15T18:15:16.327Z,17.28
2023-05-15T18:17:45.934Z,17.15
2023-05-15T18:20:14.198Z,16.97
2023-05-15T18:22:43.277Z,16.85
2023-05-15T18:25:11.018Z,16.67
2023-05-15T18:27:38.606Z,16.45
2023-05-15T18:30:09.455Z,16.32
2023-05-15T18:32:37.276Z,16.08
2023-05-15T18:35:07.224Z,15.92
2023-05-15T18:37:34.997Z,15.81
2023-05-15T18:40:02.892Z,15.72
2023-05-15T18:42:31.255Z,15.63
2023-05-15T18:44:58.869Z,15.55
2023-05-15T18:47:26.686Z,15.47
2023-05-15T18:49:54.494Z,15.39
2023-05-15T18:52:23.545Z,15.32
2023-05-15T18:54:52.454Z,15.19
2023-05-15T18:57:20.048Z,15.11
2023-05-15T18:59:48.644Z,14.96
2023-05-15T19:02:16.278Z,14.88
2023-05-15T19:04:43.861Z,14.57
2023-05-15T19:07:11.692Z,14.43
2023-05-15T19:09:40.615Z,14.12
2023-05-15T19:12:08.499Z,13.87
2023-05-15T19:14:36.097Z,13.73
2023-05-15T19:17:04.196Z,13.62
2023-05-15T19:19:31.904Z,13.56
2023-05-15T19:21:59.713Z,13.37
2023-05-15T19:24:27.332Z,13.26
2023-05-15T19:26:56.247Z,13.20
2023-05-15T19:29:23.837Z,12.89
2023-05-15T19:31:51.982Z,12.62
2023-05-15T19:34:19.568Z,12.58
2023-05-15T19:36:47.363Z,12.55
2023-05-15T19:39:14.967Z,12.55
2023-05-15T19:41:42.690Z,12.37
2023-05-15T19:44:11.731Z,12.24
2023-05-15T19:46:39.977Z,12.24
2023-05-15T19:49:07.702Z,12.35
2023-05-15T19:51:35.473Z,12.23
2023-05-15T19:54:03.103Z,12.20
2023-05-15T19:56:30.705Z,12.11
2023-05-15T19:58:59.729Z,11.98
2023-05-15T20:01:28.763Z,11.92
2023-05-15T20:03:56.650Z,12.02
2023-05-15T20:06:24.377Z,11.88
2023-05-15T20:08:52.120Z,11.96
2023-05-15T20:11:19.701Z,11.93
2023-05-15T20:13:47.839Z,11.92
2023-05-15T20:16:16.369Z,11.99
2023-05-15T20:18:47.824Z,11.99
2023-05-15T20:21:16.083Z,12.15
2023-05-15T20:23:43.836Z,12.32
2023-05-15T20:26:11.516Z,12.45
2023-05-15T20:28:39.562Z,12.50
2023-05-15T20:31:07.251Z,12.53
2023-05-15T20:33:35.121Z,12.56
2023-05-15T20:36:05.158Z,12.50
2023-05-15T20:38:33.783Z,12.35
2023-05-15T20:41:01.684Z,12.17
2023-05-15T20:43:29.299Z,12.07
2023-05-15T20:45:57.019Z,12.11
2023-05-15T20:48:24.606Z,12.03
2023-05-15T20:50:53.731Z,11.90
2023-05-15T20:53:22.987Z,11.27
2023-05-15T20:55:51.079Z,11.03
2023-05-15T20:58:18.673Z,11.16
2023-05-15T21:00:46.414Z,11.23
2023-05-15T21:03:14.873Z,11.16
2023-05-15T21:05:42.570Z,11.23
2023-05-15T21:08:10.225Z,11.27
2023-05-15T21:10:39.192Z,11.05
2023-05-15T21:13:06.779Z,11.19
2023-05-15T21:15:34.572Z,11.23
2023-05-15T21:18:02.240Z,11.18
2023-05-15T21:20:31.970Z,11.17
2023-05-15T21:23:01.197Z,11.19
2023-05-15T21:25:28.782Z,11.26
2023-05-15T21:27:57.733Z,11.16
2023-05-15T21:30:25.540Z,11.24
2023-05-15T21:32:53.561Z,11.09
2023-05-15T21:35:21.315Z,10.98
2023-05-15T21:37:49.065Z,11.11
2023-05-15T21:40:16.730Z,11.15
2023-05-15T21:42:44.380Z,11.16
2023-05-15T21:45:13.457Z,11.23
2023-05-15T21:47:41.294Z,11.20
2023-05-15T21:50:09.269Z,11.11
2023-05-15T21:52:36.989Z,11.12
2023-05-15T21:55:05.063Z,11.10
2023-05-15T21:57:32.776Z,11.03
2023-05-15T22:00:00.565Z,11.04
2023-05-15T22:02:29.679Z,11.08
2023-05-15T22:04:57.341Z,10.77
2023-05-15T22:07:24.982Z,10.93
2023-05-15T22:09:53.074Z,10.79
2023-05-15T22:12:21.055Z,10.64
2023-05-15T22:14:58.244Z,10.70
2023-05-15T22:17:28.911Z,10.65
2023-05-15T22:20:06.627Z,10.67
2023-05-15T22:22:34.641Z,10.64
2023-05-15T22:25:02.401Z,10.63
2023-05-15T22:27:30.047Z,10.59
2023-05-15T22:29:57.736Z,10.63
2023-05-15T22:32:25.802Z,10.78
2023-05-15T22:34:53.559Z,10.97
2023-05-15T22:37:22.763Z,11.02
2023-05-15T22:39:50.534Z,11.15
2023-05-15T22:42:19.078Z,11.22
2023-05-15T22:44:47.558Z,11.21
2023-05-15T22:47:15.134Z,11.23
2023-05-15T22:49:43.210Z,11.27
2023-05-15T22:52:13.011Z,11.28
2023-05-15T22:54:43.107Z,11.30
2023-05-15T22:57:10.816Z,11.28
2023-05-15T22:59:39.007Z,11.27
2023-05-15T23:02:07.008Z,11.24
2023-05-15T23:04:35.733Z,11.21
2023-05-15T23:07:03.474Z,10.90
2023-05-15T23:09:31.062Z,10.36
2023-05-15T23:12:00.565Z,10.37
2023-05-15T23:14:28.188Z,10.20
2023-05-15T23:16:55.787Z,10.15
2023-05-15T23:19:23.556Z,10.23
2023-05-15T23:21:51.910Z,10.27
2023-05-15T23:24:19.482Z,10.01
2023-05-15T23:26:48.141Z,10.03
2023-05-15T23:29:17.089Z,9.93
2023-05-15T23:31:45.101Z,9.77
2023-05-15T23:34:12.751Z,9.80
2023-05-15T23:36:40.729Z,9.72
2023-05-15T23:39:09.102Z,9.68
2023-05-15T23:41:37.110Z,9.53
2023-05-15T23:44:05.112Z,9.29
2023-05-15T23:46:35.487Z,9.18
2023-05-15T23:49:03.133Z,9.16
2023-05-15T23:51:31.163Z,9.23
2023-05-15T23:53:58.831Z,9.19
2023-05-15T23:56:26.633Z,9.18
2023-05-15T23:58:54.276Z,9.07
